createdAt,value
2023-03-06T00:01:11.573Z,5.99
2023-03-06T00:03:39.535Z,6.08
2023-03-06T00:06:07.889Z,6.16
2023-03-06T00:08:36.203Z,5.96
2023-03-06T00:11:04.134Z,5.83
2023-03-06T00:13:35.188Z,5.70
2023-03-06T00:16:03.192Z,5.84
2023-03-06T00:18:31.273Z,5.95
2023-03-06T00:20:58.959Z,5.84
2023-03-06T00:23:27.684Z,5.74
2023-03-06T00:25:55.753Z,5.83
2023-03-06T00:28:23.560Z,5.88
2023-03-06T00:30:52.898Z,5.91
2023-03-06T00:33:20.866Z,5.95
2023-03-06T00:35:49.284Z,5.92
2023-03-06T00:38:17.131Z,5.83
2023-03-06T00:40:45.402Z,5.90
2023-03-06T00:43:13.436Z,6.00
2023-03-06T00:45:43.039Z,5.84
2023-03-06T00:48:12.300Z,6.00
2023-03-06T00:50:40.204Z,5.93
2023-03-06T00:53:08.102Z,5.84
2023-03-06T00:55:35.987Z,5.92
2023-03-06T00:58:03.855Z,5.84
2023-03-06T01:00:31.763Z,5.78
2023-03-06T01:03:00.885Z,5.80
2023-03-06T01:05:31.191Z,5.82
2023-03-06T01:08:02.660Z,5.63
2023-03-06T01:10:30.660Z,5.65
2023-03-06T01:12:58.652Z,5.75
2023-03-06T01:15:26.903Z,5.81
2023-03-06T01:17:55.610Z,5.88
2023-03-06T01:20:23.886Z,5.77
2023-03-06T01:22:56.986Z,5.72
2023-03-06T01:25:24.912Z,5.72
2023-03-06T01:27:53.313Z,5.66
2023-03-06T01:30:21.610Z,5.57
2023-03-06T01:32:49.676Z,5.58
2023-03-06T01:35:17.999Z,5.54
2023-03-06T01:37:46.038Z,5.64
2023-03-06T01:40:15.579Z,5.47
2023-03-06T01:42:43.332Z,5.39
2023-03-06T01:45:26.344Z,5.52
2023-03-06T01:47:54.325Z,5.40
2023-03-06T01:50:22.241Z,5.28
2023-03-06T01:52:51.979Z,5.20
2023-03-06T01:55:22.809Z,5.16
2023-03-06T01:57:52.779Z,5.35
2023-03-06T02:02:58.006Z,5.65
2023-03-06T02:05:26.987Z,5.63
2023-03-06T02:07:57.401Z,5.66
2023-03-06T02:10:26.823Z,5.69
2023-03-06T02:12:55.681Z,5.71
2023-03-06T02:15:29.017Z,5.66
2023-03-06T02:17:57.377Z,5.62
2023-03-06T02:20:28.620Z,5.65
2023-03-06T02:22:58.335Z,5.62
2023-03-06T02:25:35.270Z,5.51
2023-03-06T02:28:04.172Z,5.55
2023-03-06T02:30:32.735Z,5.43
2023-03-06T02:33:02.059Z,5.43
2023-03-06T02:35:31.386Z,5.55
2023-03-06T02:38:00.016Z,5.50
2023-03-06T02:40:28.228Z,5.47
2023-03-06T02:42:58.397Z,5.31
2023-03-06T02:45:30.921Z,5.38
2023-03-06T02:47:58.918Z,5.23
2023-03-06T02:50:27.180Z,5.20
2023-03-06T02:52:55.394Z,5.23
2023-03-06T02:55:23.706Z,5.20
2023-03-06T02:57:54.457Z,5.23
2023-03-06T03:00:24.246Z,5.15
2023-03-06T03:02:52.362Z,5.15
2023-03-06T03:05:21.243Z,4.94
2023-03-06T03:07:56.115Z,5.16
2023-03-06T03:10:24.855Z,5.30
2023-03-06T03:12:52.737Z,5.34
2023-03-06T03:15:23.449Z,5.04
2023-03-06T03:17:51.819Z,5.00
2023-03-06T03:20:20.816Z,5.03
2023-03-06T03:22:49.272Z,5.05
2023-03-06T03:25:19.853Z,5.10
2023-03-06T03:27:48.429Z,5.24
2023-03-06T03:30:16.839Z,5.34
2023-03-06T03:32:46.048Z,5.35
2023-03-06T03:35:14.460Z,5.32
2023-03-06T03:37:42.741Z,5.06
2023-03-06T03:40:13.795Z,5.06
2023-03-06T03:42:41.723Z,5.11
2023-03-06T03:45:11.587Z,5.26
2023-03-06T03:47:40.718Z,5.39
2023-03-06T03:50:11.443Z,5.49
2023-03-06T03:52:39.743Z,5.47
2023-03-06T03:55:08.505Z,5.41
2023-03-06T03:57:39.468Z,5.44
2023-03-06T04:00:12.132Z,5.46
2023-03-06T04:02:52.511Z,5.53
2023-03-06T04:05:34.055Z,5.57
2023-03-06T04:08:04.348Z,5.63
2023-03-06T04:10:34.522Z,5.67
2023-03-06T04:13:03.620Z,5.69
2023-03-06T04:15:32.878Z,5.70
2023-03-06T04:18:02.608Z,5.57
2023-03-06T04:20:31.100Z,5.69
2023-03-06T04:23:02.709Z,5.75
2023-03-06T04:25:30.802Z,5.83
2023-03-06T04:28:01.392Z,5.86
2023-03-06T04:30:31.036Z,5.97
2023-03-06T04:33:00.231Z,5.96
2023-03-06T04:35:28.399Z,5.92
2023-03-06T04:38:03.725Z,5.92
2023-03-06T04:40:34.734Z,5.68
2023-03-06T04:43:03.255Z,5.53
2023-03-06T04:45:32.397Z,5.50
2023-03-06T04:48:00.479Z,5.50
2023-03-06T04:50:32.769Z,5.59
2023-03-06T04:53:01.453Z,5.73
2023-03-06T04:55:31.160Z,5.82
2023-03-06T04:57:59.337Z,5.93
2023-03-06T05:00:30.691Z,5.89
2023-03-06T05:02:59.075Z,5.88
2023-03-06T05:05:27.366Z,5.74
2023-03-06T05:07:55.764Z,5.65
2023-03-06T05:10:23.871Z,5.55
2023-03-06T05:12:53.249Z,5.54
2023-03-06T05:15:21.454Z,5.60
2023-03-06T05:17:49.351Z,5.41
2023-03-06T05:20:18.541Z,5.45
2023-03-06T05:22:46.464Z,5.62
2023-03-06T05:25:14.707Z,5.50
2023-03-06T05:27:42.997Z,5.51
2023-03-06T05:30:13.846Z,5.61
2023-03-06T05:32:41.756Z,5.58
2023-03-06T05:35:10.170Z,5.27
2023-03-06T05:37:37.949Z,5.18
2023-03-06T05:40:09.718Z,5.24
2023-03-06T05:42:37.566Z,5.31
2023-03-06T05:45:05.671Z,5.39
2023-03-06T05:47:35.021Z,5.24
2023-03-06T05:50:02.812Z,5.26
2023-03-06T05:52:30.788Z,5.25
2023-03-06T05:54:58.692Z,5.34
2023-03-06T05:57:26.717Z,5.39
2023-03-06T05:59:54.529Z,5.46
2023-03-06T06:02:22.424Z,5.51
2023-03-06T06:04:51.896Z,5.47
2023-03-06T06:07:19.604Z,5.45
2023-03-06T06:09:47.809Z,5.43
2023-03-06T06:12:16.192Z,5.34
2023-03-06T06:14:44.067Z,5.53
2023-03-06T06:17:12.574Z,5.65
2023-03-06T06:19:40.298Z,5.62
2023-03-06T06:22:09.773Z,5.53
2023-03-06T06:24:37.771Z,5.39
2023-03-06T06:27:06.138Z,5.34
2023-03-06T06:29:34.089Z,5.43
2023-03-06T06:32:02.073Z,5.55
2023-03-06T06:34:30.863Z,5.71
2023-03-06T06:36:58.894Z,5.85
2023-03-06T06:39:29.077Z,5.87
2023-03-06T06:42:19.502Z,5.63
2023-03-06T06:44:48.552Z,5.41
2023-03-06T06:47:25.312Z,5.44
2023-03-06T06:49:54.679Z,5.52
2023-03-06T06:52:23.276Z,5.59
2023-03-06T06:54:52.548Z,5.57
2023-03-06T06:57:20.714Z,5.58
2023-03-06T06:59:49.265Z,5.53
2023-03-06T07:02:17.973Z,5.57
2023-03-06T07:05:02.404Z,5.65
2023-03-06T07:07:31.481Z,5.73
2023-03-06T07:10:00.738Z,5.83
2023-03-06T07:12:28.606Z,5.96
2023-03-06T07:14:57.142Z,5.99
2023-03-06T07:17:25.393Z,6.09
2023-03-06T07:19:53.414Z,6.29
2023-03-06T07:22:21.436Z,6.61
2023-03-06T07:24:49.223Z,6.82
2023-03-06T07:27:18.495Z,7.19
2023-03-06T07:29:46.962Z,7.47
2023-03-06T07:32:14.829Z,7.95
2023-03-06T07:34:44.453Z,8.06
2023-03-06T07:37:12.723Z,7.82
2023-03-06T07:39:40.530Z,7.42
2023-03-06T07:42:08.771Z,7.08
2023-03-06T07:44:44.508Z,7.24
2023-03-06T07:47:15.609Z,7.10
2023-03-06T07:49:43.665Z,7.25
2023-03-06T07:52:12.799Z,6.96
2023-03-06T07:54:40.769Z,6.63
2023-03-06T07:57:08.790Z,6.46
2023-03-06T07:59:38.519Z,6.29
2023-03-06T08:02:08.618Z,6.38
2023-03-06T08:04:36.392Z,6.06
2023-03-06T08:07:04.209Z,6.00
2023-03-06T08:09:32.358Z,6.33
2023-03-06T08:12:00.304Z,5.74
2023-03-06T08:14:28.818Z,5.99
2023-03-06T08:16:56.911Z,6.17
2023-03-06T08:19:26.065Z,6.18
2023-03-06T08:21:54.185Z,5.71
2023-03-06T08:24:22.170Z,5.93
2023-03-06T08:26:49.963Z,6.19
2023-03-06T08:29:18.021Z,5.87
2023-03-06T08:31:46.948Z,6.19
2023-03-06T08:34:15.753Z,7.05
2023-03-06T08:36:47.578Z,7.27
2023-03-06T08:39:15.568Z,7.43
2023-03-06T08:41:43.469Z,6.93
2023-03-06T08:44:13.452Z,6.61
2023-03-06T08:46:41.659Z,6.24
2023-03-06T08:49:10.628Z,6.48
2023-03-06T08:51:38.404Z,7.38
2023-03-06T08:54:08.515Z,6.78
2023-03-06T08:56:36.550Z,7.56
2023-03-06T08:59:06.275Z,7.15
2023-03-06T09:01:34.970Z,6.08
2023-03-06T09:04:04.563Z,6.85
2023-03-06T09:06:33.441Z,7.65
2023-03-06T09:09:01.460Z,7.24
2023-03-06T09:11:31.131Z,6.39
2023-03-06T09:13:59.319Z,6.27
2023-03-06T09:16:27.574Z,6.70
2023-03-06T09:18:55.838Z,6.67
2023-03-06T09:21:23.934Z,7.04
2023-03-06T09:23:51.842Z,7.19
2023-03-06T09:26:19.733Z,7.40
2023-03-06T09:28:48.596Z,6.90
2023-03-06T09:31:17.164Z,6.87
2023-03-06T09:33:45.891Z,7.46
2023-03-06T09:36:15.515Z,6.82
2023-03-06T09:38:43.437Z,6.34
2023-03-06T09:41:17.854Z,6.58
2023-03-06T09:43:47.853Z,7.01
2023-03-06T09:46:20.931Z,7.61
2023-03-06T09:48:54.845Z,6.89
2023-03-06T09:51:26.159Z,5.93
2023-03-06T09:53:58.967Z,6.06
2023-03-06T09:56:32.116Z,6.42
2023-03-06T09:59:04.372Z,6.84
2023-03-06T10:01:35.913Z,6.18
2023-03-06T10:04:10.087Z,6.44
2023-03-06T10:06:42.516Z,6.62
2023-03-06T10:09:15.640Z,6.44
2023-03-06T10:11:46.767Z,5.58
2023-03-06T10:14:21.488Z,6.15
2023-03-06T10:16:51.040Z,6.35
2023-03-06T10:19:20.447Z,6.83
2023-03-06T10:21:52.406Z,7.01
2023-03-06T10:24:24.431Z,7.49
2023-03-06T10:26:56.240Z,7.24
2023-03-06T10:29:32.216Z,7.09
2023-03-06T10:32:05.616Z,7.34
2023-03-06T10:34:34.569Z,7.80
2023-03-06T10:37:07.255Z,8.68
2023-03-06T10:39:35.312Z,7.72
2023-03-06T10:42:03.467Z,7.78
2023-03-06T10:44:33.223Z,7.33
2023-03-06T10:47:22.267Z,7.08
2023-03-06T10:49:58.420Z,7.48
2023-03-06T10:52:29.861Z,8.41
2023-03-06T10:55:14.497Z,8.32
2023-03-06T10:57:43.227Z,8.16
2023-03-06T11:00:25.175Z,8.57
2023-03-06T11:03:06.412Z,8.74
2023-03-06T11:05:34.466Z,8.66
2023-03-06T11:08:02.562Z,8.70
2023-03-06T11:10:31.659Z,8.80
2023-03-06T11:13:00.305Z,9.29
2023-03-06T11:15:32.291Z,9.99
2023-03-06T11:18:03.245Z,10.44
2023-03-06T11:20:49.931Z,11.76
2023-03-06T11:23:20.228Z,12.02
2023-03-06T11:25:50.857Z,12.19
2023-03-06T11:28:22.488Z,12.89
2023-03-06T11:30:52.744Z,13.14
2023-03-06T11:33:25.186Z,12.00
2023-03-06T11:36:00.621Z,9.83
2023-03-06T11:38:34.313Z,10.29
2023-03-06T11:41:04.150Z,9.68
2023-03-06T11:43:36.578Z,9.51
2023-03-06T11:46:08.333Z,9.66
2023-03-06T11:48:37.982Z,8.89
2023-03-06T11:51:13.572Z,9.50
2023-03-06T11:53:42.073Z,8.57
2023-03-06T11:56:17.757Z,8.99
2023-03-06T11:58:57.550Z,11.16
2023-03-06T12:01:28.810Z,10.81
2023-03-06T12:04:17.767Z,10.95
2023-03-06T12:06:55.191Z,9.40
2023-03-06T12:09:29.886Z,8.61
2023-03-06T12:12:06.767Z,9.41
2023-03-06T12:14:42.294Z,10.41
2023-03-06T12:17:16.058Z,10.47
2023-03-06T12:19:49.981Z,12.11
2023-03-06T12:22:23.409Z,11.14
2023-03-06T12:25:01.784Z,11.74
2023-03-06T12:27:36.751Z,13.08
2023-03-06T12:30:24.644Z,13.26
2023-03-06T12:32:59.964Z,13.48
2023-03-06T12:35:42.702Z,11.00
2023-03-06T12:38:25.476Z,10.84
2023-03-06T12:41:00.369Z,10.07
2023-03-06T12:43:47.288Z,12.70
2023-03-06T12:46:16.473Z,11.01
2023-03-06T12:48:48.472Z,11.43
2023-03-06T12:51:18.148Z,12.93
2023-03-06T12:53:49.126Z,13.51
2023-03-06T12:56:18.481Z,12.68
2023-03-06T12:58:50.124Z,12.30
2023-03-06T13:01:32.873Z,15.53
2023-03-06T13:04:06.741Z,17.70
2023-03-06T13:06:50.965Z,19.61
2023-03-06T13:09:25.833Z,18.49
2023-03-06T13:12:13.552Z,16.73
2023-03-06T13:14:56.081Z,16.44
2023-03-06T13:17:41.068Z,15.24
2023-03-06T13:20:26.129Z,13.42
2023-03-06T13:22:53.846Z,12.15
2023-03-06T13:25:52.821Z,16.16
2023-03-06T13:28:25.025Z,19.42
2023-03-06T13:30:53.392Z,14.27
2023-03-06T13:33:39.635Z,11.25
2023-03-06T13:36:22.976Z,11.28
2023-03-06T13:39:00.325Z,10.84
2023-03-06T13:41:52.475Z,10.71
2023-03-06T13:44:48.884Z,9.50
2023-03-06T13:47:46.121Z,9.61
2023-03-06T13:50:35.775Z,9.72
2023-03-06T13:53:15.736Z,10.34
2023-03-06T13:55:46.706Z,10.11
2023-03-06T13:58:31.355Z,9.94
2023-03-06T14:01:16.000Z,9.72
2023-03-06T14:03:58.698Z,9.70
2023-03-06T14:06:49.635Z,9.60
2023-03-06T14:09:24.027Z,10.08
2023-03-06T14:11:53.954Z,9.96
2023-03-06T14:14:25.226Z,9.45
2023-03-06T14:16:55.059Z,9.67
2023-03-06T14:19:23.838Z,9.19
2023-03-06T14:21:56.765Z,8.93
2023-03-06T14:24:32.881Z,8.84
2023-03-06T14:27:05.642Z,8.98
2023-03-06T14:29:34.079Z,8.96
2023-03-06T14:32:03.010Z,8.83
2023-03-06T14:34:31.991Z,9.12
2023-03-06T14:37:02.742Z,8.99
2023-03-06T14:39:34.677Z,8.74
2023-03-06T14:42:06.638Z,8.94
2023-03-06T14:44:36.436Z,8.91
2023-03-06T14:47:20.639Z,9.01
2023-03-06T14:49:48.866Z,8.83
2023-03-06T14:52:21.862Z,8.85
2023-03-06T14:54:50.074Z,9.02
2023-03-06T14:57:20.582Z,9.10
2023-03-06T14:59:51.104Z,8.92
2023-03-06T15:02:20.520Z,8.91
2023-03-06T15:04:51.614Z,8.70
2023-03-06T15:07:25.160Z,8.92
2023-03-06T15:09:53.989Z,8.90
2023-03-06T15:12:36.065Z,9.04
2023-03-06T15:15:06.097Z,9.00
2023-03-06T15:17:39.832Z,8.47
2023-03-06T15:20:11.986Z,7.83
2023-03-06T15:22:42.468Z,7.86
2023-03-06T15:25:22.379Z,8.11
2023-03-06T15:27:52.660Z,8.15
2023-03-06T15:30:27.497Z,8.43
2023-03-06T15:33:10.357Z,8.47
2023-03-06T15:35:39.422Z,8.03
2023-03-06T15:38:26.693Z,8.16
2023-03-06T15:40:57.236Z,8.26
2023-03-06T15:43:25.294Z,8.46
2023-03-06T15:45:57.629Z,8.66
2023-03-06T15:48:26.669Z,8.49
2023-03-06T15:50:54.756Z,8.34
2023-03-06T15:53:23.074Z,8.19
2023-03-06T15:55:51.625Z,8.02
2023-03-06T15:58:25.042Z,7.59
2023-03-06T16:00:52.857Z,7.14
2023-03-06T16:03:21.017Z,7.04
2023-03-06T16:05:48.759Z,7.06
2023-03-06T16:08:16.535Z,7.15
2023-03-06T16:10:45.522Z,6.91
2023-03-06T16:13:13.823Z,6.73
2023-03-06T16:15:47.949Z,6.55
2023-03-06T16:18:16.613Z,6.64
2023-03-06T16:20:44.632Z,6.65
2023-03-06T16:23:12.158Z,6.67
2023-03-06T16:25:40.971Z,6.75
2023-03-06T16:28:12.341Z,6.85
2023-03-06T16:30:40.140Z,7.11
2023-03-06T16:33:10.382Z,6.95
2023-03-06T16:35:41.882Z,6.77
2023-03-06T16:38:10.978Z,6.82
2023-03-06T16:40:41.357Z,6.89
2023-03-06T16:43:09.663Z,7.21
2023-03-06T16:45:38.390Z,7.64
2023-03-06T16:48:06.359Z,7.81
2023-03-06T16:50:38.226Z,7.89
2023-03-06T16:53:06.541Z,7.74
2023-03-06T16:55:34.493Z,7.28
2023-03-06T16:58:02.451Z,6.92
2023-03-06T17:00:35.145Z,6.86
2023-03-06T17:03:03.435Z,6.68
2023-03-06T17:05:34.274Z,6.26
2023-03-06T17:08:04.924Z,6.04
2023-03-06T17:10:32.703Z,6.11
2023-03-06T17:13:06.378Z,6.26
2023-03-06T17:15:34.436Z,6.10
2023-03-06T17:18:02.428Z,6.19
2023-03-06T17:20:30.717Z,6.27
2023-03-06T17:22:58.693Z,6.25
2023-03-06T17:25:27.683Z,6.25
2023-03-06T17:27:55.434Z,6.18
2023-03-06T17:30:23.419Z,6.16
2023-03-06T17:32:51.309Z,6.12
2023-03-06T17:35:19.333Z,5.87
2023-03-06T17:37:47.145Z,5.61
2023-03-06T17:40:15.583Z,5.43
2023-03-06T17:42:44.615Z,5.33
2023-03-06T17:45:12.809Z,5.17
2023-03-06T17:47:40.812Z,5.04
2023-03-06T17:50:10.133Z,4.99
2023-03-06T17:52:38.882Z,4.92
2023-03-06T17:55:07.590Z,4.82
2023-03-06T17:57:35.231Z,4.72
2023-03-06T18:00:06.033Z,4.69
2023-03-06T18:02:40.116Z,4.67
2023-03-06T18:05:09.312Z,4.70
2023-03-06T18:07:37.644Z,4.57
2023-03-06T18:10:06.239Z,4.49
2023-03-06T18:12:34.304Z,4.29
2023-03-06T18:15:02.579Z,4.14
2023-03-06T18:17:31.817Z,4.01
2023-03-06T18:19:59.508Z,3.86
2023-03-06T18:22:27.099Z,3.88
2023-03-06T18:24:54.808Z,3.91
2023-03-06T18:27:22.546Z,3.99
2023-03-06T18:29:52.491Z,3.92
2023-03-06T18:32:24.744Z,3.95
2023-03-06T18:34:56.139Z,4.06
2023-03-06T18:37:28.518Z,4.16
2023-03-06T18:39:58.516Z,4.17
2023-03-06T18:42:26.296Z,4.24
2023-03-06T18:44:54.167Z,4.23
2023-03-06T18:47:21.963Z,4.24
2023-03-06T18:49:50.823Z,4.30
2023-03-06T18:52:20.271Z,4.37
2023-03-06T18:54:49.940Z,4.41
2023-03-06T18:57:17.893Z,4.37
2023-03-06T18:59:45.977Z,4.29
2023-03-06T19:02:14.392Z,4.26
2023-03-06T19:04:42.476Z,4.23
2023-03-06T19:07:10.504Z,4.18
2023-03-06T19:09:39.854Z,4.15
2023-03-06T19:12:08.936Z,4.08
2023-03-06T19:14:37.979Z,4.02
2023-03-06T19:17:05.767Z,4.10
2023-03-06T19:19:33.803Z,4.26
2023-03-06T19:22:01.974Z,4.36
2023-03-06T19:24:30.125Z,4.36
2023-03-06T19:26:59.701Z,4.37
2023-03-06T19:29:28.540Z,4.50
2023-03-06T19:31:57.325Z,4.47
2023-03-06T19:37:20.403Z,4.24
2023-03-06T19:39:49.486Z,4.06
2023-03-06T19:42:18.852Z,3.99
2023-03-06T19:44:46.880Z,3.92
2023-03-06T19:47:14.869Z,3.94
2023-03-06T19:49:42.850Z,3.89
2023-03-06T19:52:10.973Z,3.82
2023-03-06T19:54:38.872Z,3.70
2023-03-06T19:57:06.833Z,3.77
2023-03-06T19:59:36.317Z,3.84
2023-03-06T20:02:04.099Z,3.93
2023-03-06T20:04:32.549Z,4.09
2023-03-06T20:07:00.342Z,4.14
2023-03-06T20:09:28.222Z,4.16
2023-03-06T20:11:56.192Z,4.16
2023-03-06T20:14:24.012Z,4.23
2023-03-06T20:16:53.289Z,4.27
2023-03-06T20:19:21.832Z,4.09
2023-03-06T20:21:50.733Z,3.85
2023-03-06T20:24:18.864Z,3.56
2023-03-06T20:26:48.732Z,3.56
2023-03-06T20:29:16.595Z,3.52
2023-03-06T20:31:44.578Z,3.50
2023-03-06T20:34:14.032Z,3.48
2023-03-06T20:36:42.005Z,3.40
2023-03-06T20:39:12.402Z,3.36
2023-03-06T20:41:40.440Z,3.24
2023-03-06T20:44:10.056Z,3.25
2023-03-06T20:46:38.915Z,3.15
2023-03-06T20:49:06.794Z,3.04
2023-03-06T20:51:39.248Z,3.04
2023-03-06T20:54:08.290Z,3.02
2023-03-06T20:56:37.022Z,3.08
2023-03-06T20:59:05.835Z,3.12
2023-03-06T21:01:36.620Z,3.17
2023-03-06T21:04:05.228Z,3.13
2023-03-06T21:06:33.188Z,3.08
2023-03-06T21:09:02.991Z,2.98
2023-03-06T21:11:31.268Z,3.05
2023-03-06T21:13:59.064Z,3.01
2023-03-06T21:16:27.107Z,2.98
2023-03-06T21:18:55.743Z,2.91
2023-03-06T21:21:25.119Z,2.95
2023-03-06T21:23:53.167Z,2.89
2023-03-06T21:26:23.316Z,2.96
2023-03-06T21:28:51.097Z,2.86
2023-03-06T21:31:20.254Z,2.86
2023-03-06T21:33:49.001Z,2.91
2023-03-06T21:36:18.535Z,2.85
2023-03-06T21:38:47.450Z,2.95
2023-03-06T21:41:16.732Z,2.88
2023-03-06T21:43:46.031Z,2.86
2023-03-06T21:46:14.083Z,2.88
2023-03-06T21:48:42.167Z,2.89
2023-03-06T21:51:12.192Z,2.93
2023-03-06T21:53:42.346Z,2.94
2023-03-06T21:56:10.414Z,2.92
2023-03-06T21:58:38.680Z,2.98
2023-03-06T22:01:11.795Z,3.01
2023-03-06T22:03:39.914Z,3.04
2023-03-06T22:06:09.514Z,3.07
2023-03-06T22:08:37.540Z,3.08
2023-03-06T22:11:09.726Z,3.15
2023-03-06T22:13:37.796Z,3.17
2023-03-06T22:16:06.165Z,3.32
2023-03-06T22:18:35.926Z,3.47
2023-03-06T22:21:07.599Z,3.41
2023-03-06T22:23:35.295Z,3.36
2023-03-06T22:26:04.023Z,3.43
2023-03-06T22:28:31.988Z,3.43
2023-03-06T22:31:06.192Z,3.46
2023-03-06T22:33:36.171Z,3.53
2023-03-06T22:36:06.318Z,3.53
2023-03-06T22:38:34.814Z,3.59
2023-03-06T22:41:03.242Z,3.89
2023-03-06T22:43:31.299Z,4.03
2023-03-06T22:46:01.511Z,4.16
2023-03-06T22:48:31.788Z,4.12
2023-03-06T22:51:04.987Z,4.25
2023-03-06T22:53:32.919Z,4.21
2023-03-06T22:56:00.825Z,4.27
2023-03-06T22:58:34.269Z,4.28
2023-03-06T23:01:05.197Z,4.32
2023-03-06T23:03:35.639Z,4.34
2023-03-06T23:06:07.378Z,4.35
2023-03-06T23:08:35.039Z,4.23
2023-03-06T23:11:03.518Z,4.21
2023-03-06T23:13:50.048Z,4.36
2023-03-06T23:16:36.907Z,4.38
2023-03-06T23:19:23.345Z,4.45
2023-03-06T23:22:11.276Z,4.30
2023-03-06T23:24:57.702Z,4.44
2023-03-06T23:27:25.589Z,4.32
2023-03-06T23:29:55.389Z,4.22
2023-03-06T23:32:24.269Z,4.24
2023-03-06T23:34:52.212Z,4.29
2023-03-06T23:37:21.305Z,4.42
2023-03-06T23:39:49.208Z,4.48
2023-03-06T23:42:16.821Z,4.49
2023-03-06T23:44:48.122Z,4.38
2023-03-06T23:47:17.165Z,4.49
2023-03-06T23:49:44.893Z,4.51
2023-03-06T23:52:12.750Z,4.33
2023-03-06T23:54:42.165Z,4.40
2023-03-06T23:57:10.067Z,4.45
2023-03-06T23:59:38.739Z,4.39
